Time;durP1;ratioP1;P1;durP2;ratioP2;P2;SDS_P1;SDS_P2;PMS_P1;PMS_P2;Temp;Humidity;BMP_temperature;BMP_pressure;BME280_temperature;BME280_humidity;BME280_pressure;Samples;Min_cycle;Max_cycle;Signal;HPM_P1;HPM_P2
2021/08/25 00:00:46;;;;;;;14.20;10.35;;;11.40;99.90;;;;;;2089205;28;20086;-70
2021/08/25 00:01:47;;;;;;;13.57;9.82;;;11.40;99.90;;;;;;2089289;28;20025;-71
2021/08/25 00:02:48;;;;;;;13.80;10.05;;;11.40;99.90;;;;;;2080150;28;20034;-71
2021/08/25 00:03:48;;;;;;;12.55;9.80;;;11.40;99.90;;;;;;2072213;28;20549;-70
2021/08/25 00:04:49;;;;;;;12.82;10.15;;;11.40;99.90;;;;;;2080196;28;20025;-71
2021/08/25 00:05:49;;;;;;;13.85;10.43;;;11.40;99.90;;;;;;2089004;28;20033;-71
2021/08/25 00:06:50;;;;;;;12.60;10.02;;;11.40;99.90;;;;;;2080312;28;20068;-71
2021/08/25 00:07:50;;;;;;;12.80;9.82;;;11.40;99.90;;;;;;2079898;28;20029;-71
2021/08/25 00:08:51;;;;;;;15.35;9.85;;;11.40;99.90;;;;;;2079952;28;20045;-70
2021/08/25 00:09:53;;;;;;;13.50;10.20;;;11.30;99.90;;;;;;2080329;28;20033;-71
2021/08/25 00:10:53;;;;;;;14.70;10.20;;;11.40;99.90;;;;;;2089050;28;20037;-70
2021/08/25 00:11:54;;;;;;;13.80;10.00;;;11.30;99.90;;;;;;2089002;28;20039;-71
2021/08/25 00:12:54;;;;;;;12.80;9.90;;;11.30;99.90;;;;;;2080172;28;20025;-71
2021/08/25 00:13:55;;;;;;;15.65;10.20;;;11.30;99.90;;;;;;2080546;28;20021;-71
2021/08/25 00:14:56;;;;;;;13.25;10.05;;;11.30;99.90;;;;;;2089096;28;20056;-70
2021/08/25 00:15:56;;;;;;;13.55;10.02;;;11.30;99.90;;;;;;2080120;28;20481;-72
2021/08/25 00:16:57;;;;;;;14.30;10.35;;;11.30;99.90;;;;;;2080106;28;20642;-71
2021/08/25 00:17:57;;;;;;;11.48;9.60;;;11.20;99.90;;;;;;2088514;28;20032;-70
2021/08/25 00:18:58;;;;;;;14.40;10.18;;;11.20;99.90;;;;;;2088798;28;20032;-71
2021/08/25 00:19:59;;;;;;;14.77;10.25;;;11.20;99.90;;;;;;2080126;28;20029;-70
2021/08/25 00:21:00;;;;;;;12.50;9.65;;;11.20;99.90;;;;;;2080050;28;20025;-71
2021/08/25 00:22:01;;;;;;;18.27;10.23;;;11.20;99.90;;;;;;2089075;28;20029;-71
2021/08/25 00:23:01;;;;;;;14.63;9.75;;;11.20;99.90;;;;;;2088990;28;20064;-71
2021/08/25 00:24:02;;;;;;;12.25;9.38;;;11.20;99.90;;;;;;2088832;28;20462;-70
2021/08/25 00:25:03;;;;;;;13.18;9.48;;;11.20;99.90;;;;;;2088866;28;20053;-71
2021/08/25 00:26:04;;;;;;;14.77;9.60;;;11.20;99.90;;;;;;2080020;28;20061;-70
2021/08/25 00:27:05;;;;;;;13.70;9.48;;;11.10;99.90;;;;;;2080006;28;20032;-71
2021/08/25 00:28:05;;;;;;;16.45;9.25;;;11.10;99.90;;;;;;2088403;28;20031;-71
2021/08/25 00:29:06;;;;;;;12.55;8.90;;;11.10;99.90;;;;;;2088698;28;20021;-70
2021/08/25 00:30:07;;;;;;;12.60;9.60;;;11.10;99.90;;;;;;2088852;28;20472;-71
2021/08/25 00:31:08;;;;;;;13.32;9.35;;;11.10;99.90;;;;;;2088758;28;20029;-71
2021/08/25 00:32:08;;;;;;;13.48;9.45;;;11.10;99.90;;;;;;2088833;28;20029;-71
2021/08/25 00:33:09;;;;;;;12.00;9.20;;;11.10;99.90;;;;;;2089016;28;20578;-71
2021/08/25 00:34:10;;;;;;;12.93;9.10;;;11.10;99.90;;;;;;2088755;28;20032;-71
2021/08/25 00:35:11;;;;;;;13.57;9.85;;;11.10;99.90;;;;;;2071907;28;20034;-71
2021/08/25 00:36:12;;;;;;;13.98;9.35;;;11.10;99.90;;;;;;2072082;28;20026;-72
2021/08/25 00:37:12;;;;;;;13.45;9.40;;;11.10;99.90;;;;;;2088434;28;20594;-71
2021/08/25 00:38:13;;;;;;;12.15;9.55;;;11.00;99.90;;;;;;2079967;28;20431;-69
2021/08/25 00:39:14;;;;;;;12.77;9.23;;;11.00;99.90;;;;;;2071548;28;20037;-71
2021/08/25 00:40:14;;;;;;;12.98;9.48;;;11.00;99.90;;;;;;2079938;28;20056;-71
2021/08/25 00:41:15;;;;;;;13.80;9.13;;;11.00;99.90;;;;;;2088714;28;20727;-71
2021/08/25 00:42:16;;;;;;;13.30;9.63;;;11.00;99.90;;;;;;2088770;28;20048;-71
2021/08/25 00:43:16;;;;;;;12.73;8.77;;;11.00;99.90;;;;;;2088818;28;20067;-70
2021/08/25 00:44:17;;;;;;;14.35;9.30;;;11.00;99.90;;;;;;2088903;28;20013;-72
2021/08/25 00:45:18;;;;;;;11.07;8.85;;;11.00;99.90;;;;;;2079900;28;20033;-71
2021/08/25 00:46:19;;;;;;;14.00;9.77;;;11.00;99.90;;;;;;2079906;28;20504;-71
2021/08/25 00:47:19;;;;;;;12.15;8.98;;;11.00;99.90;;;;;;2088200;28;20021;-71
2021/08/25 00:48:20;;;;;;;12.48;9.40;;;11.00;99.90;;;;;;2088903;28;20717;-71
2021/08/25 00:49:21;;;;;;;12.90;9.35;;;11.00;99.90;;;;;;2079647;28;20040;-71
2021/08/25 00:50:21;;;;;;;11.52;9.27;;;11.00;99.90;;;;;;2080013;28;20120;-71
2021/08/25 00:51:23;;;;;;;11.77;9.43;;;11.00;99.90;;;;;;2079862;28;20068;-71
2021/08/25 00:52:23;;;;;;;13.63;9.52;;;11.00;99.90;;;;;;2080125;28;20018;-71
2021/08/25 00:53:24;;;;;;;12.15;8.95;;;11.00;99.90;;;;;;2079720;28;20140;-71
2021/08/25 00:54:25;;;;;;;12.88;9.02;;;11.00;99.90;;;;;;2079981;28;20033;-70
2021/08/25 00:55:25;;;;;;;13.20;9.27;;;11.00;99.90;;;;;;2088727;28;20040;-70
2021/08/25 00:56:26;;;;;;;13.52;9.52;;;10.90;99.90;;;;;;2088696;28;20025;-71
2021/08/25 00:57:27;;;;;;;13.77;9.52;;;10.90;99.90;;;;;;2088442;28;20773;-70
2021/08/25 00:58:28;;;;;;;12.75;9.60;;;10.90;99.90;;;;;;2079764;28;20029;-71
2021/08/25 00:59:31;;;;;;;12.95;9.18;;;10.90;99.90;;;;;;2079658;28;20037;-70
2021/08/25 01:00:33;;;;;;;11.57;9.18;;;10.90;99.90;;;;;;2088744;28;20025;-71
2021/08/25 01:01:57;;;;;;;13.65;9.85;;;10.90;99.90;;;;;;2088670;28;20507;-71
2021/08/25 01:03:12;;;;;;;14.10;9.27;;;10.90;99.90;;;;;;2088678;28;20032;-71
2021/08/25 01:04:34;;;;;;;12.45;9.30;;;10.90;99.90;;;;;;2079783;28;20030;-72
2021/08/25 01:05:39;;;;;;;14.90;9.57;;;10.90;99.90;;;;;;2082890;28;20033;-70
2021/08/25 01:06:41;;;;;;;13.95;9.80;;;10.90;99.90;;;;;;2088634;28;20029;-71
2021/08/25 01:07:43;;;;;;;12.85;9.90;;;10.90;99.90;;;;;;2079286;28;20056;-70
2021/08/25 01:08:44;;;;;;;14.43;9.05;;;10.90;99.90;;;;;;2079765;28;20041;-70
2021/08/25 01:09:45;;;;;;;12.93;9.27;;;10.80;99.90;;;;;;2088726;28;20032;-69
2021/08/25 01:10:46;;;;;;;15.02;10.93;;;10.80;99.90;;;;;;2088467;28;20040;-70
2021/08/25 01:11:49;;;;;;;19.17;12.05;;;10.90;99.90;;;;;;2079601;28;20079;-70
2021/08/25 01:12:50;;;;;;;18.83;11.55;;;10.90;99.90;;;;;;2080150;28;20481;-70
2021/08/25 01:13:51;;;;;;;14.90;10.55;;;10.80;99.90;;;;;;2088727;28;20047;-70
2021/08/25 01:14:52;;;;;;;15.70;10.50;;;10.80;99.90;;;;;;2088522;28;20033;-70
2021/08/25 01:15:52;;;;;;;13.23;10.15;;;10.80;99.90;;;;;;2088693;28;20029;-69
2021/08/25 01:16:53;;;;;;;13.70;9.55;;;10.80;99.90;;;;;;2079887;28;20033;-70
2021/08/25 01:17:55;;;;;;;14.57;10.30;;;10.80;99.90;;;;;;2081038;28;20029;-70
2021/08/25 01:18:57;;;;;;;14.68;10.07;;;10.80;99.90;;;;;;2090138;28;20041;-70
2021/08/25 01:20:09;;;;;;;13.48;10.10;;;10.80;99.90;;;;;;2090556;28;20128;-71
2021/08/25 01:21:11;;;;;;;13.02;9.88;;;10.80;99.90;;;;;;2090454;28;20033;-71
2021/08/25 01:22:12;;;;;;;12.38;9.23;;;10.80;99.90;;;;;;2090351;28;20021;-71
2021/08/25 01:23:13;;;;;;;13.27;10.05;;;10.80;99.90;;;;;;2081566;28;20500;-71
2021/08/25 01:24:16;;;;;;;12.55;9.60;;;10.80;99.90;;;;;;2081599;28;20069;-71
2021/08/25 01:25:17;;;;;;;13.10;9.80;;;10.80;99.90;;;;;;2090402;28;20052;-71
2021/08/25 01:26:18;;;;;;;12.65;10.00;;;10.80;99.90;;;;;;2081589;28;20028;-70
2021/08/25 01:27:22;;;;;;;13.68;9.77;;;10.70;99.90;;;;;;2081038;28;20524;-69
2021/08/25 01:28:26;;;;;;;13.05;9.98;;;10.70;99.90;;;;;;2090476;28;20086;-70
2021/08/25 01:29:30;;;;;;;15.30;10.20;;;10.70;99.90;;;;;;2090071;28;20041;-70
2021/08/25 01:30:33;;;;;;;14.15;10.18;;;10.70;99.90;;;;;;2090323;28;20064;-70
2021/08/25 01:31:34;;;;;;;13.55;10.27;;;10.70;99.90;;;;;;2081373;28;20036;-70
2021/08/25 01:32:36;;;;;;;15.05;10.57;;;10.70;99.90;;;;;;2081523;28;20041;-70
2021/08/25 01:33:36;;;;;;;15.43;10.38;;;10.70;99.90;;;;;;2081526;28;20088;-70
2021/08/25 01:34:54;;;;;;;15.13;10.13;;;10.70;99.90;;;;;;2073555;28;20053;-70
2021/08/25 01:35:56;;;;;;;13.48;10.15;;;10.70;99.90;;;;;;2084106;28;20104;-70
2021/08/25 01:36:57;;;;;;;13.75;10.10;;;10.70;99.90;;;;;;2090611;28;20385;-70
2021/08/25 01:37:59;;;;;;;15.27;10.85;;;10.70;99.90;;;;;;2081039;28;20105;-72
2021/08/25 01:39:00;;;;;;;15.30;10.85;;;10.60;99.90;;;;;;2081456;28;20030;-70
2021/08/25 01:40:00;;;;;;;13.25;10.20;;;10.60;99.90;;;;;;2090201;28;20032;-71
2021/08/25 01:41:02;;;;;;;14.40;10.73;;;10.60;99.90;;;;;;2081490;28;20864;-70
2021/08/25 01:42:03;;;;;;;15.38;10.23;;;10.60;99.90;;;;;;2081787;28;20104;-70
2021/08/25 01:43:06;;;;;;;15.70;10.90;;;10.60;99.90;;;;;;2081433;28;20488;-70
2021/08/25 01:44:06;;;;;;;13.35;10.25;;;10.60;99.90;;;;;;2081335;28;20780;-70
2021/08/25 01:45:07;;;;;;;14.10;9.95;;;10.60;99.90;;;;;;2090109;28;20079;-70
2021/08/25 01:46:08;;;;;;;14.93;10.80;;;10.60;99.90;;;;;;2090223;28;20079;-71
2021/08/25 01:47:08;;;;;;;16.10;11.05;;;10.60;99.90;;;;;;2080984;28;20030;-71
2021/08/25 01:48:09;;;;;;;13.43;10.20;;;10.60;99.90;;;;;;2081345;28;20440;-70
2021/08/25 01:49:12;;;;;;;14.68;10.18;;;10.50;99.90;;;;;;2089943;28;20094;-70
2021/08/25 01:50:13;;;;;;;16.55;10.55;;;10.50;99.90;;;;;;2090338;28;20054;-70
2021/08/25 01:51:13;;;;;;;16.67;10.60;;;10.50;99.90;;;;;;2081045;28;20458;-70
2021/08/25 01:52:16;;;;;;;13.60;10.30;;;10.50;99.90;;;;;;2081111;28;20492;-70
2021/08/25 01:53:16;;;;;;;15.43;10.13;;;10.50;99.90;;;;;;2090282;28;20059;-69
2021/08/25 01:54:17;;;;;;;12.68;9.50;;;10.50;99.90;;;;;;2090240;28;20550;-70
2021/08/25 01:55:18;;;;;;;13.30;10.27;;;10.50;99.90;;;;;;2090136;28;20021;-69
2021/08/25 01:56:19;;;;;;;14.55;10.15;;;10.40;99.90;;;;;;2090356;28;20037;-70
2021/08/25 01:57:20;;;;;;;14.82;10.02;;;10.40;99.90;;;;;;2090348;28;20044;-70
2021/08/25 01:58:23;;;;;;;16.05;9.93;;;10.40;99.90;;;;;;2091341;28;20031;-70
2021/08/25 01:59:23;;;;;;;13.70;9.70;;;10.40;99.90;;;;;;2094023;28;20036;-70
2021/08/25 02:00:24;;;;;;;12.80;9.60;;;10.40;99.90;;;;;;2083317;28;20021;-70
2021/08/25 02:01:25;;;;;;;12.27;8.90;;;10.40;99.90;;;;;;2081370;28;20037;-70
2021/08/25 02:02:25;;;;;;;13.07;9.32;;;10.40;99.90;;;;;;2091194;28;20032;-70
2021/08/25 02:03:26;;;;;;;14.70;9.02;;;10.40;99.90;;;;;;2091552;28;20039;-70
2021/08/25 02:04:26;;;;;;;15.55;9.45;;;10.40;99.90;;;;;;2086180;28;20138;-70
2021/08/25 02:05:27;;;;;;;13.05;9.57;;;10.40;99.90;;;;;;2084817;28;20041;-71
2021/08/25 02:06:29;;;;;;;14.60;9.45;;;10.40;99.90;;;;;;2098070;28;20009;-72
2021/08/25 02:07:30;;;;;;;14.40;9.63;;;10.40;99.90;;;;;;2096668;28;20017;-71
2021/08/25 02:08:31;;;;;;;14.23;9.15;;;10.40;99.90;;;;;;2093971;28;20051;-71
2021/08/25 02:09:32;;;;;;;13.63;9.02;;;10.40;99.90;;;;;;2094897;28;20036;-72
2021/08/25 02:10:34;;;;;;;14.02;9.65;;;10.30;99.90;;;;;;2098689;28;20031;-71
2021/08/25 02:11:35;;;;;;;12.93;8.95;;;10.30;99.90;;;;;;2097377;28;20108;-72
2021/08/25 02:12:35;;;;;;;14.82;9.70;;;10.30;99.90;;;;;;2093220;28;20028;-71
2021/08/25 02:13:36;;;;;;;15.52;9.25;;;10.30;99.90;;;;;;2091278;28;20032;-71
2021/08/25 02:14:36;;;;;;;13.65;9.65;;;10.30;99.90;;;;;;2090764;28;20021;-72
2021/08/25 02:15:37;;;;;;;14.18;9.02;;;10.30;99.90;;;;;;2090219;28;20044;-72
2021/08/25 02:16:38;;;;;;;12.30;8.75;;;10.30;99.90;;;;;;2090109;28;20028;-71
2021/08/25 02:17:40;;;;;;;13.25;8.93;;;10.30;99.90;;;;;;2090370;28;20025;-71
2021/08/25 02:18:41;;;;;;;13.05;9.13;;;10.30;99.90;;;;;;2090556;28;20116;-71
2021/08/25 02:19:41;;;;;;;13.00;8.98;;;10.30;99.90;;;;;;2090525;28;20025;-71
2021/08/25 02:20:42;;;;;;;12.52;9.23;;;10.30;99.90;;;;;;2089930;28;20136;-71
2021/08/25 02:21:43;;;;;;;12.93;9.27;;;10.30;99.90;;;;;;2090287;28;20032;-71
2021/08/25 02:22:43;;;;;;;13.52;9.30;;;10.30;99.90;;;;;;2081289;28;20026;-70
2021/08/25 02:23:44;;;;;;;13.60;9.43;;;10.30;99.90;;;;;;2073050;28;20464;-70
2021/08/25 02:24:45;;;;;;;13.02;9.18;;;10.20;99.90;;;;;;2080997;28;20029;-72
2021/08/25 02:25:45;;;;;;;13.55;9.20;;;10.20;99.90;;;;;;2081072;28;20041;-71
2021/08/25 02:26:46;;;;;;;12.05;8.75;;;10.20;99.90;;;;;;2089734;28;20110;-71
2021/08/25 02:27:47;;;;;;;13.85;9.65;;;10.20;99.90;;;;;;2080616;28;20040;-71
2021/08/25 02:28:51;;;;;;;14.07;9.48;;;10.20;99.90;;;;;;2080863;28;20651;-70
2021/08/25 02:29:55;;;;;;;13.05;9.60;;;10.20;99.90;;;;;;2080952;28;20137;-71
2021/08/25 02:30:56;;;;;;;12.38;9.20;;;10.20;99.90;;;;;;2081718;28;20045;-70
2021/08/25 02:31:57;;;;;;;13.55;9.23;;;10.20;99.90;;;;;;2089687;28;20052;-70
2021/08/25 02:32:57;;;;;;;13.85;9.80;;;10.20;99.90;;;;;;2089827;28;20017;-71
2021/08/25 02:33:58;;;;;;;13.23;9.63;;;10.20;99.90;;;;;;2089959;28;20480;-71
2021/08/25 02:34:59;;;;;;;13.70;10.00;;;10.20;99.90;;;;;;2080796;28;20120;-71
2021/08/25 02:36:00;;;;;;;14.40;9.98;;;10.20;99.90;;;;;;2080888;28;20026;-71
2021/08/25 02:37:00;;;;;;;12.65;10.02;;;10.20;99.90;;;;;;2089699;28;20096;-69
2021/08/25 02:38:01;;;;;;;13.68;9.93;;;10.20;99.90;;;;;;2089084;28;20463;-70
2021/08/25 02:39:02;;;;;;;13.60;10.00;;;10.10;99.90;;;;;;2089475;28;20024;-70
2021/08/25 02:40:08;;;;;;;14.45;10.13;;;10.20;99.90;;;;;;2089690;28;20053;-71
2021/08/25 02:41:12;;;;;;;12.98;9.65;;;10.20;99.90;;;;;;2089469;28;20121;-71
2021/08/25 02:42:12;;;;;;;14.98;9.77;;;10.10;99.90;;;;;;2089666;28;20035;-71
2021/08/25 02:43:13;;;;;;;12.70;9.65;;;10.10;99.90;;;;;;2089602;28;20028;-70
2021/08/25 02:44:14;;;;;;;12.95;9.50;;;10.10;99.90;;;;;;2080808;28;20056;-71
2021/08/25 02:45:14;;;;;;;14.63;9.70;;;10.10;99.90;;;;;;2080821;28;20532;-70
2021/08/25 02:46:16;;;;;;;14.85;10.20;;;10.10;99.90;;;;;;2089610;28;20496;-70
2021/08/25 02:47:16;;;;;;;11.93;9.45;;;10.10;99.90;;;;;;2089133;28;20041;-70
2021/08/25 02:48:17;;;;;;;13.68;9.45;;;10.10;99.90;;;;;;2089360;28;20472;-70
2021/08/25 02:49:18;;;;;;;12.07;9.05;;;10.10;99.90;;;;;;2089399;28;20017;-71
2021/08/25 02:50:20;;;;;;;14.48;10.40;;;10.10;99.90;;;;;;2089722;28;20086;-71
2021/08/25 02:51:20;;;;;;;11.93;9.38;;;10.10;99.90;;;;;;2089587;28;20033;-71
2021/08/25 02:52:21;;;;;;;13.75;9.35;;;10.10;99.90;;;;;;2089696;28;20044;-71
2021/08/25 02:53:22;;;;;;;14.55;9.95;;;10.10;99.90;;;;;;2080831;28;20052;-70
2021/08/25 02:54:23;;;;;;;12.35;9.35;;;10.00;99.90;;;;;;2080943;28;20568;-70
2021/08/25 02:55:24;;;;;;;13.23;9.32;;;10.00;99.90;;;;;;2089815;28;20184;-71
2021/08/25 02:56:24;;;;;;;12.77;9.70;;;10.00;99.90;;;;;;2089855;28;20056;-71
2021/08/25 02:57:25;;;;;;;12.45;9.32;;;10.00;99.90;;;;;;2089271;28;20025;-71
2021/08/25 02:58:25;;;;;;;14.35;9.63;;;10.00;99.90;;;;;;2089620;28;20029;-71
2021/08/25 02:59:26;;;;;;;13.77;9.25;;;10.00;99.90;;;;;;2089454;28;20392;-71
2021/08/25 03:00:27;;;;;;;11.55;9.30;;;10.00;99.90;;;;;;2089732;28;20033;-70
2021/08/25 03:01:27;;;;;;;13.52;9.80;;;10.00;99.90;;;;;;2089505;28;20056;-71
2021/08/25 03:02:28;;;;;;;12.43;9.68;;;10.00;99.90;;;;;;2089622;28;20070;-69
2021/08/25 03:03:28;;;;;;;11.63;9.00;;;10.00;99.90;;;;;;2080767;28;20076;-71
2021/08/25 03:04:29;;;;;;;11.98;9.27;;;10.00;99.90;;;;;;2080771;28;20110;-70
2021/08/25 03:05:30;;;;;;;13.32;9.18;;;10.00;99.90;;;;;;2089486;28;20040;-71
2021/08/25 03:06:30;;;;;;;13.20;9.13;;;10.00;99.90;;;;;;2089601;28;20119;-71
2021/08/25 03:07:31;;;;;;;13.23;9.52;;;10.00;99.90;;;;;;2089092;28;20032;-70
2021/08/25 03:08:36;;;;;;;14.50;9.60;;;10.00;99.90;;;;;;2089635;28;20147;-71
2021/08/25 03:09:36;;;;;;;13.15;9.40;;;10.00;99.90;;;;;;2089641;28;20051;-71
2021/08/25 03:10:37;;;;;;;13.13;9.45;;;10.00;99.90;;;;;;2080603;28;20036;-70
2021/08/25 03:11:38;;;;;;;13.48;9.25;;;10.00;99.90;;;;;;2080930;28;20108;-71
2021/08/25 03:12:38;;;;;;;11.95;9.27;;;10.00;99.90;;;;;;2072806;28;20117;-71
2021/08/25 03:13:40;;;;;;;12.38;9.48;;;10.00;99.90;;;;;;2072857;28;20022;-71
2021/08/25 03:14:41;;;;;;;12.63;9.18;;;10.00;99.90;;;;;;2080758;28;20040;-72
2021/08/25 03:15:42;;;;;;;12.63;9.13;;;10.00;99.90;;;;;;2080557;28;20474;-71
2021/08/25 03:16:42;;;;;;;12.50;9.23;;;10.00;99.90;;;;;;2080835;28;20068;-71
2021/08/25 03:17:43;;;;;;;13.60;9.32;;;10.00;99.90;;;;;;2089110;28;20025;-71
2021/08/25 03:18:43;;;;;;;13.38;9.32;;;10.00;99.90;;;;;;2080508;28;20557;-69
2021/08/25 03:19:44;;;;;;;13.63;9.50;;;10.00;99.90;;;;;;2072670;28;20068;-71
2021/08/25 03:20:44;;;;;;;12.48;9.50;;;10.00;99.90;;;;;;2080706;28;20153;-71
2021/08/25 03:21:45;;;;;;;10.98;8.93;;;10.00;99.90;;;;;;2080801;28;20460;-71
2021/08/25 03:22:45;;;;;;;12.30;8.90;;;10.00;99.90;;;;;;2089429;28;20052;-70
2021/08/25 03:23:46;;;;;;;14.98;8.85;;;10.00;99.90;;;;;;2089484;28;20101;-71
2021/08/25 03:24:47;;;;;;;14.30;9.40;;;10.00;99.90;;;;;;2080551;28;20048;-71
2021/08/25 03:25:47;;;;;;;15.02;9.73;;;10.00;99.90;;;;;;2080570;28;20025;-71
2021/08/25 03:26:48;;;;;;;13.48;9.45;;;10.00;99.90;;;;;;2089310;28;20405;-71
2021/08/25 03:27:48;;;;;;;13.00;9.45;;;10.00;99.90;;;;;;2088780;28;20396;-71
2021/08/25 03:28:49;;;;;;;13.95;9.63;;;10.00;99.90;;;;;;2088911;28;20104;-70
2021/08/25 03:29:50;;;;;;;14.43;9.88;;;10.00;99.90;;;;;;2089386;28;20595;-71
2021/08/25 03:30:56;;;;;;;14.63;9.98;;;10.00;99.90;;;;;;2089242;28;20440;-71
2021/08/25 03:31:56;;;;;;;13.98;10.07;;;10.00;99.90;;;;;;2089062;28;20025;-71
2021/08/25 03:32:57;;;;;;;14.77;9.98;;;9.90;99.90;;;;;;2089428;28;20619;-71
2021/08/25 03:33:58;;;;;;;14.95;10.15;;;9.90;99.90;;;;;;2089349;28;20065;-71
2021/08/25 03:34:58;;;;;;;15.77;10.32;;;9.90;99.90;;;;;;2080433;28;20025;-71
2021/08/25 03:35:59;;;;;;;13.77;10.30;;;9.90;99.90;;;;;;2072207;28;20021;-71
2021/08/25 03:36:59;;;;;;;16.80;10.50;;;9.80;99.90;;;;;;2080392;28;20025;-71
2021/08/25 03:38:00;;;;;;;17.23;10.45;;;9.90;99.90;;;;;;2088852;28;20029;-71
2021/08/25 03:39:01;;;;;;;16.83;10.00;;;9.80;99.90;;;;;;2088991;28;20048;-70
2021/08/25 03:40:02;;;;;;;17.55;10.23;;;9.80;99.90;;;;;;2088728;28;20056;-71
2021/08/25 03:41:02;;;;;;;13.60;10.73;;;9.80;99.90;;;;;;2089249;28;20066;-71
2021/08/25 03:42:03;;;;;;;14.23;10.40;;;9.80;99.90;;;;;;2089367;28;20025;-70
2021/08/25 03:43:04;;;;;;;14.82;10.55;;;9.80;99.90;;;;;;2089225;28;20025;-70
2021/08/25 03:44:05;;;;;;;15.25;10.30;;;9.80;99.90;;;;;;2089169;28;20120;-71
2021/08/25 03:45:06;;;;;;;13.77;10.15;;;9.80;99.90;;;;;;2089400;28;20617;-70
2021/08/25 03:46:07;;;;;;;15.20;10.40;;;9.70;99.90;;;;;;2088989;28;20468;-71
2021/08/25 03:47:09;;;;;;;16.27;10.45;;;9.80;99.90;;;;;;2089008;28;20154;-72
2021/08/25 03:48:09;;;;;;;14.48;10.77;;;9.70;99.90;;;;;;2089296;28;20044;-71
2021/08/25 03:49:10;;;;;;;15.77;10.65;;;9.70;99.90;;;;;;2089391;28;20017;-70
2021/08/25 03:50:10;;;;;;;13.27;10.13;;;9.70;99.90;;;;;;2089535;28;20546;-71
2021/08/25 03:51:11;;;;;;;14.77;10.98;;;9.70;99.90;;;;;;2089543;28;20035;-70
2021/08/25 03:52:11;;;;;;;14.50;10.50;;;9.70;99.90;;;;;;2089537;28;20055;-70
2021/08/25 03:53:12;;;;;;;14.43;10.70;;;9.60;99.90;;;;;;2080515;28;20079;-70
2021/08/25 03:54:13;;;;;;;14.45;10.45;;;9.70;99.90;;;;;;2080764;28;20029;-71
2021/08/25 03:55:13;;;;;;;17.25;10.73;;;9.60;99.90;;;;;;2080659;28;20034;-71
2021/08/25 03:56:14;;;;;;;15.13;10.35;;;9.60;99.90;;;;;;2080707;28;20022;-70
2021/08/25 03:57:14;;;;;;;13.77;10.23;;;9.60;99.90;;;;;;2089012;28;20029;-70
2021/08/25 03:58:15;;;;;;;13.25;10.05;;;9.60;99.90;;;;;;2089507;28;20021;-71
2021/08/25 03:59:15;;;;;;;15.02;10.68;;;9.60;99.90;;;;;;2089173;28;20041;-70
2021/08/25 04:00:16;;;;;;;14.32;10.27;;;9.60;99.90;;;;;;2080831;28;20014;-70
2021/08/25 04:01:17;;;;;;;13.63;10.50;;;9.60;99.90;;;;;;2072499;28;20026;-71
2021/08/25 04:02:17;;;;;;;17.42;10.43;;;9.60;99.90;;;;;;2080739;28;20393;-70
2021/08/25 04:03:19;;;;;;;16.10;11.07;;;9.60;99.90;;;;;;2089382;28;20036;-70
2021/08/25 04:04:19;;;;;;;13.80;10.32;;;9.60;99.90;;;;;;2080565;28;20396;-70
2021/08/25 04:05:20;;;;;;;15.93;11.07;;;9.60;99.90;;;;;;2080648;28;20029;-70
2021/08/25 04:06:21;;;;;;;14.13;9.90;;;9.60;99.90;;;;;;2089498;28;20509;-70
2021/08/25 04:07:21;;;;;;;17.95;10.57;;;9.60;99.90;;;;;;2089323;28;20388;-70
2021/08/25 04:08:22;;;;;;;16.33;11.02;;;9.60;99.90;;;;;;2090635;28;20033;-71
2021/08/25 04:09:22;;;;;;;15.98;10.90;;;9.60;99.90;;;;;;2090440;28;20079;-70
2021/08/25 04:10:23;;;;;;;15.23;10.77;;;9.60;99.90;;;;;;2090737;28;20036;-70
2021/08/25 04:11:23;;;;;;;13.77;10.43;;;9.60;99.90;;;;;;2081818;28;20049;-70
2021/08/25 04:12:24;;;;;;;14.55;11.00;;;9.60;99.90;;;;;;2073856;28;20083;-70
2021/08/25 04:13:25;;;;;;;17.52;10.95;;;9.60;99.90;;;;;;2082073;28;20664;-70
2021/08/25 04:14:25;;;;;;;14.02;10.43;;;9.60;99.90;;;;;;2080597;28;20029;-71
2021/08/25 04:15:26;;;;;;;16.33;10.80;;;9.60;99.90;;;;;;2072414;28;20437;-70
2021/08/25 04:16:27;;;;;;;14.65;10.93;;;9.60;99.90;;;;;;2080596;28;20095;-70
2021/08/25 04:17:28;;;;;;;17.52;10.88;;;9.70;99.90;;;;;;2088917;28;20035;-70
2021/08/25 04:18:30;;;;;;;17.05;10.48;;;9.70;99.90;;;;;;2079995;28;20090;-70
2021/08/25 04:19:30;;;;;;;14.77;10.60;;;9.60;99.90;;;;;;2080206;28;20548;-70
2021/08/25 04:20:31;;;;;;;14.10;10.15;;;9.70;99.90;;;;;;2089107;28;20036;-70
2021/08/25 04:21:31;;;;;;;15.25;11.00;;;9.70;99.90;;;;;;2080448;28;20068;-71
2021/08/25 04:22:32;;;;;;;16.05;10.82;;;9.60;99.90;;;;;;2080424;28;20109;-70
2021/08/25 04:23:33;;;;;;;15.07;10.30;;;9.60;99.90;;;;;;2089204;28;20556;-72
2021/08/25 04:24:33;;;;;;;17.23;11.52;;;9.60;99.90;;;;;;2088987;28;20040;-72
2021/08/25 04:25:34;;;;;;;15.40;10.70;;;9.60;99.90;;;;;;2088841;28;20021;-71
2021/08/25 04:26:34;;;;;;;14.35;10.65;;;9.60;99.90;;;;;;2088946;28;20385;-71
2021/08/25 04:27:35;;;;;;;15.32;10.18;;;9.60;99.90;;;;;;2088429;28;20017;-72
2021/08/25 04:28:36;;;;;;;16.42;10.57;;;9.60;99.90;;;;;;2088774;28;20070;-71
2021/08/25 04:29:36;;;;;;;16.80;10.80;;;9.70;99.90;;;;;;2080058;28;20108;-71
2021/08/25 04:30:37;;;;;;;15.70;10.35;;;9.70;99.90;;;;;;2079799;28;20088;-71
2021/08/25 04:31:38;;;;;;;15.50;10.73;;;9.70;99.90;;;;;;2080024;28;20757;-71
2021/08/25 04:32:38;;;;;;;14.50;10.43;;;9.70;99.90;;;;;;2079835;28;20029;-72
2021/08/25 04:33:39;;;;;;;15.00;10.07;;;9.70;99.90;;;;;;2088983;28;20029;-71
2021/08/25 04:34:39;;;;;;;13.68;10.48;;;9.70;99.90;;;;;;2088955;28;20040;-70
2021/08/25 04:35:40;;;;;;;15.60;10.30;;;9.70;99.90;;;;;;2088649;28;20082;-70
2021/08/25 04:36:41;;;;;;;14.45;10.57;;;9.70;99.90;;;;;;2088801;28;20035;-69
2021/08/25 04:37:41;;;;;;;15.20;10.55;;;9.70;99.90;;;;;;2079622;28;20120;-69
2021/08/25 04:38:42;;;;;;;14.07;10.50;;;9.70;99.90;;;;;;2079726;28;20026;-69
2021/08/25 04:39:43;;;;;;;16.27;10.00;;;9.70;99.90;;;;;;2088720;28;20045;-69
2021/08/25 04:40:44;;;;;;;16.00;10.40;;;9.80;99.90;;;;;;2088386;28;20067;-71
2021/08/25 04:41:45;;;;;;;15.25;10.60;;;9.80;99.90;;;;;;2088840;28;20033;-71
2021/08/25 04:42:45;;;;;;;14.50;10.43;;;9.80;99.90;;;;;;2088836;28;20099;-71
2021/08/25 04:43:46;;;;;;;14.93;10.57;;;9.80;99.90;;;;;;2088792;28;20075;-70
2021/08/25 04:44:46;;;;;;;15.23;9.90;;;9.80;99.90;;;;;;2088970;28;20503;-70
2021/08/25 04:45:47;;;;;;;15.88;10.32;;;9.80;99.90;;;;;;2088872;28;20037;-71
2021/08/25 04:46:48;;;;;;;13.50;10.10;;;9.80;99.90;;;;;;2088851;28;20041;-70
2021/08/25 04:47:48;;;;;;;13.88;9.82;;;9.90;99.90;;;;;;2079621;28;20041;-70
2021/08/25 04:48:49;;;;;;;14.57;10.30;;;9.90;99.90;;;;;;2079795;28;20107;-71
2021/08/25 04:49:50;;;;;;;16.80;9.68;;;9.90;99.90;;;;;;2089041;28;20025;-71
2021/08/25 04:50:50;;;;;;;16.20;10.15;;;9.90;99.90;;;;;;2088907;28;20501;-70
2021/08/25 04:51:51;;;;;;;15.05;10.25;;;10.00;99.90;;;;;;2088360;28;20036;-70
2021/08/25 04:52:51;;;;;;;14.40;9.98;;;9.90;99.90;;;;;;2088630;28;20025;-71
2021/08/25 04:53:52;;;;;;;14.80;9.90;;;10.00;99.90;;;;;;2089015;28;20029;-71
2021/08/25 04:54:53;;;;;;;13.52;9.80;;;10.00;99.90;;;;;;2088800;28;20491;-71
2021/08/25 04:55:54;;;;;;;14.35;10.10;;;10.10;99.90;;;;;;2088677;28;20033;-71
2021/08/25 04:56:55;;;;;;;16.65;9.95;;;10.10;99.90;;;;;;2088744;28;20029;-70
2021/08/25 04:57:55;;;;;;;13.13;9.95;;;10.10;99.90;;;;;;2088299;28;20108;-71
2021/08/25 04:58:56;;;;;;;13.40;10.15;;;10.10;99.90;;;;;;2079585;28;20056;-70
2021/08/25 04:59:56;;;;;;;13.65;9.82;;;10.20;99.90;;;;;;2079943;28;20515;-71
2021/08/25 05:00:57;;;;;;;13.80;10.15;;;10.20;99.90;;;;;;2079690;28;20063;-70
2021/08/25 05:01:58;;;;;;;13.82;9.75;;;10.20;99.90;;;;;;2071691;28;20106;-70
2021/08/25 05:02:58;;;;;;;14.20;9.80;;;10.30;99.90;;;;;;2079879;28;20057;-71
2021/08/25 05:03:59;;;;;;;14.43;10.05;;;10.30;99.90;;;;;;2079694;28;20036;-71
2021/08/25 05:05:00;;;;;;;13.70;10.13;;;10.40;99.90;;;;;;2079781;28;20048;-71
2021/08/25 05:06:10;;;;;;;14.20;10.13;;;10.50;99.90;;;;;;2088805;28;20067;-71
2021/08/25 05:07:12;;;;;;;;;;;10.60;99.90;;;;;;2088312;28;20508;-70
2021/08/25 05:08:13;;;;;;;15.35;9.98;;;10.60;99.90;;;;;;2088646;28;19933;-71
2021/08/25 05:09:14;;;;;;;12.45;9.63;;;10.70;99.90;;;;;;2079443;28;20493;-70
2021/08/25 05:10:15;;;;;;;13.13;9.80;;;10.70;99.90;;;;;;2079753;28;20029;-70
2021/08/25 05:11:16;;;;;;;14.68;10.55;;;10.80;99.90;;;;;;2088542;28;20033;-70
2021/08/25 05:12:17;;;;;;;13.35;10.13;;;11.00;99.90;;;;;;2088526;28;20041;-71
2021/08/25 05:13:18;;;;;;;14.70;9.82;;;11.30;99.90;;;;;;2088652;28;20575;-71
2021/08/25 05:14:19;;;;;;;13.63;9.80;;;11.50;99.90;;;;;;2088817;28;20025;-70